createdAt,value
2023-03-08T00:00:47.347Z,9.88
2023-03-08T00:03:18.275Z,8.02
2023-03-08T00:05:48.456Z,8.25
2023-03-08T00:08:20.291Z,9.30
2023-03-08T00:10:53.158Z,8.68
2023-03-08T00:13:23.466Z,8.48
2023-03-08T00:15:53.888Z,9.57
2023-03-08T00:18:24.141Z,8.90
2023-03-08T00:21:02.163Z,8.48
2023-03-08T00:23:32.478Z,8.32
2023-03-08T00:26:06.270Z,8.10
2023-03-08T00:28:36.696Z,6.63
2023-03-08T00:31:09.689Z,9.13
2023-03-08T00:33:40.696Z,7.57
2023-03-08T00:36:16.376Z,7.45
2023-03-08T00:38:47.050Z,9.15
2023-03-08T00:41:20.778Z,7.82
2023-03-08T00:43:51.433Z,7.88
2023-03-08T00:46:21.989Z,6.70
2023-03-08T00:48:52.231Z,8.25
2023-03-08T00:51:23.714Z,9.05
2023-03-08T00:53:54.011Z,7.43
2023-03-08T00:56:27.708Z,7.38
2023-03-08T00:58:57.926Z,7.75
2023-03-08T01:01:28.603Z,7.68
2023-03-08T01:03:59.435Z,7.43
2023-03-08T01:06:29.786Z,5.82
2023-03-08T01:08:59.992Z,7.63
2023-03-08T01:11:33.364Z,6.13
2023-03-08T01:14:03.728Z,5.30
2023-03-08T01:16:35.785Z,5.57
2023-03-08T01:19:07.775Z,7.50
2023-03-08T01:21:38.121Z,5.78
2023-03-08T01:24:09.262Z,6.82
2023-03-08T01:26:42.151Z,8.25
2023-03-08T01:29:12.413Z,6.88
2023-03-08T01:31:42.809Z,6.80
2023-03-08T01:34:13.217Z,4.22
2023-03-08T01:36:43.488Z,5.10
2023-03-08T01:39:14.110Z,5.78
2023-03-08T01:41:47.033Z,5.20
2023-03-08T01:44:19.832Z,4.55
2023-03-08T01:46:50.626Z,5.18
2023-03-08T01:49:31.893Z,5.85
2023-03-08T01:52:09.551Z,6.78
2023-03-08T01:54:47.010Z,6.65
2023-03-08T01:59:56.561Z,4.90
2023-03-08T02:02:30.742Z,6.00
2023-03-08T02:05:01.201Z,2.60
2023-03-08T02:07:32.906Z,4.20
2023-03-08T02:10:03.362Z,3.67
2023-03-08T02:12:37.141Z,1.83
2023-03-08T02:15:11.145Z,2.75
2023-03-08T02:17:43.228Z,2.00
2023-03-08T02:20:20.690Z,2.80
2023-03-08T02:22:54.659Z,2.20
2023-03-08T02:25:27.104Z,2.03
2023-03-08T02:27:58.183Z,1.88
2023-03-08T02:30:30.506Z,2.00
2023-03-08T02:33:00.759Z,1.98
2023-03-08T02:35:32.699Z,1.08
2023-03-08T02:38:05.757Z,1.98
2023-03-08T02:40:36.148Z,0.88
2023-03-08T02:43:06.795Z,2.63
2023-03-08T02:45:37.193Z,1.35
2023-03-08T02:48:08.779Z,0.38
2023-03-08T02:50:39.292Z,0.93
2023-03-08T02:53:14.160Z,1.00
2023-03-08T02:55:44.378Z,1.25
2023-03-08T02:58:17.139Z,0.90
2023-03-08T03:00:48.203Z,1.25
2023-03-08T03:03:20.735Z,0.88
2023-03-08T03:05:54.894Z,1.73
2023-03-08T03:08:35.708Z,1.73
2023-03-08T03:11:14.785Z,0.45
2023-03-08T03:13:46.439Z,0.47
2023-03-08T03:16:20.305Z,1.30
2023-03-08T03:18:51.249Z,1.10
2023-03-08T03:21:22.236Z,0.80
2023-03-08T03:23:58.181Z,0.75
2023-03-08T03:26:37.239Z,1.63
2023-03-08T03:29:08.328Z,0.70
2023-03-08T03:31:41.749Z,3.35
2023-03-08T03:34:12.586Z,2.63
2023-03-08T03:36:44.905Z,4.88
2023-03-08T03:39:18.469Z,4.43
2023-03-08T03:41:51.295Z,4.55
2023-03-08T03:44:23.070Z,4.82
2023-03-08T03:46:54.088Z,3.28
2023-03-08T03:49:30.690Z,2.30
2023-03-08T03:52:01.472Z,6.60
2023-03-08T03:54:42.827Z,7.53
2023-03-08T03:57:13.859Z,4.15
2023-03-08T03:59:46.515Z,9.30
2023-03-08T04:02:17.023Z,6.63
2023-03-08T04:04:54.050Z,10.50
2023-03-08T04:07:28.663Z,7.47
2023-03-08T04:10:04.144Z,10.38
2023-03-08T04:12:35.909Z,17.50
2023-03-08T04:15:06.927Z,17.27
2023-03-08T04:17:37.379Z,11.38
2023-03-08T04:20:09.039Z,12.35
2023-03-08T04:22:44.413Z,8.15
2023-03-08T04:27:59.692Z,12.20
2023-03-08T04:30:30.492Z,17.38
2023-03-08T04:33:02.214Z,13.25
2023-03-08T04:35:40.244Z,13.88
2023-03-08T04:38:10.679Z,13.38
2023-03-08T04:41:01.694Z,12.65
2023-03-08T04:43:38.093Z,14.30
2023-03-08T04:46:08.926Z,15.35
2023-03-08T04:48:41.092Z,13.57
2023-03-08T04:51:14.322Z,15.70
2023-03-08T04:53:45.610Z,14.32
2023-03-08T04:56:19.900Z,15.32
2023-03-08T04:58:51.430Z,17.65
2023-03-08T05:01:25.925Z,16.20
2023-03-08T05:03:57.783Z,16.58
2023-03-08T05:06:36.281Z,15.70
2023-03-08T05:09:06.956Z,15.27
2023-03-08T05:11:41.842Z,14.77
2023-03-08T05:14:12.948Z,15.48
2023-03-08T05:16:43.508Z,27.25
2023-03-08T05:19:21.104Z,19.75
2023-03-08T05:21:54.997Z,16.92
2023-03-08T05:24:27.368Z,17.45
2023-03-08T05:27:02.033Z,15.23
2023-03-08T05:29:32.267Z,12.82
2023-03-08T05:32:02.646Z,13.88
2023-03-08T05:34:34.527Z,13.32
2023-03-08T05:37:07.801Z,16.02
2023-03-08T05:39:40.604Z,23.50
2023-03-08T05:42:22.198Z,15.65
2023-03-08T05:44:52.899Z,13.15
2023-03-08T05:47:30.505Z,18.70
2023-03-08T05:50:03.735Z,15.23
2023-03-08T05:52:39.032Z,20.25
2023-03-08T05:55:10.432Z,17.20
2023-03-08T05:57:44.198Z,18.95
2023-03-08T06:00:16.148Z,19.00
2023-03-08T06:02:46.466Z,15.57
2023-03-08T06:05:18.150Z,14.90
2023-03-08T06:07:50.038Z,16.50
2023-03-08T06:10:21.909Z,19.98
2023-03-08T06:12:56.967Z,12.57
2023-03-08T06:15:28.430Z,24.63
2023-03-08T06:18:00.227Z,11.13
2023-03-08T06:20:33.006Z,17.33
2023-03-08T06:23:04.854Z,21.15
2023-03-08T06:25:35.412Z,15.45
2023-03-08T06:28:08.739Z,14.90
2023-03-08T06:30:42.350Z,13.87
2023-03-08T06:33:12.905Z,18.25
2023-03-08T06:35:43.210Z,16.58
2023-03-08T06:38:14.420Z,13.50
2023-03-08T06:40:44.714Z,19.77
2023-03-08T06:43:17.749Z,14.63
2023-03-08T06:45:49.289Z,15.43
2023-03-08T06:48:19.684Z,14.25
2023-03-08T06:50:50.666Z,14.40
2023-03-08T06:53:21.298Z,12.50
2023-03-08T06:56:15.012Z,9.35
2023-03-08T06:58:48.144Z,9.63
2023-03-08T07:01:18.636Z,14.93
2023-03-08T07:03:49.034Z,16.40
2023-03-08T07:06:19.351Z,14.13
2023-03-08T07:08:49.610Z,13.18
2023-03-08T07:11:19.822Z,13.23
2023-03-08T07:13:52.717Z,13.65
2023-03-08T07:16:23.258Z,9.88
2023-03-08T07:18:53.510Z,10.55
2023-03-08T07:21:23.803Z,13.82
2023-03-08T07:23:55.528Z,12.80
2023-03-08T07:26:26.181Z,12.25
2023-03-08T07:28:59.011Z,10.80
2023-03-08T07:31:29.460Z,11.30
2023-03-08T07:33:59.915Z,18.33
2023-03-08T07:36:30.173Z,12.18
2023-03-08T07:39:00.444Z,8.52
2023-03-08T07:41:31.849Z,9.80
2023-03-08T07:44:05.230Z,8.77
2023-03-08T07:46:35.501Z,7.18
2023-03-08T07:49:10.585Z,6.25
2023-03-08T07:51:41.014Z,8.68
2023-03-08T07:54:13.680Z,10.20
2023-03-08T07:56:43.902Z,12.70
2023-03-08T07:59:17.137Z,10.07
2023-03-08T08:01:47.501Z,8.82
2023-03-08T08:04:17.787Z,8.55
2023-03-08T08:06:48.111Z,11.80
2023-03-08T08:09:18.780Z,12.68
2023-03-08T08:11:49.107Z,7.70
2023-03-08T08:14:22.112Z,14.00
2023-03-08T08:16:52.378Z,10.45
2023-03-08T08:19:22.656Z,9.75
2023-03-08T08:21:52.991Z,9.60
2023-03-08T08:24:23.306Z,13.55
2023-03-08T08:26:53.632Z,15.02
2023-03-08T08:29:26.904Z,9.82
2023-03-08T08:31:57.336Z,11.55
2023-03-08T08:34:28.289Z,8.43
2023-03-08T08:36:58.551Z,12.05
2023-03-08T08:39:28.979Z,14.45
2023-03-08T08:41:59.203Z,11.20
2023-03-08T08:44:32.082Z,13.20
2023-03-08T08:47:02.582Z,14.18
2023-03-08T08:49:32.893Z,14.13
2023-03-08T08:52:03.131Z,15.00
2023-03-08T08:54:33.929Z,13.35
2023-03-08T08:57:04.171Z,13.38
2023-03-08T08:59:37.596Z,8.95
2023-03-08T09:02:08.065Z,18.50
2023-03-08T09:04:38.800Z,13.77
2023-03-08T09:07:09.946Z,17.02
2023-03-08T09:09:40.213Z,16.83
2023-03-08T09:12:11.297Z,14.15
2023-03-08T09:14:44.190Z,20.35
2023-03-08T09:17:14.452Z,13.90
2023-03-08T09:19:44.717Z,13.13
2023-03-08T09:22:15.019Z,14.50
2023-03-08T09:24:45.994Z,22.10
2023-03-08T09:27:16.260Z,10.80
2023-03-08T09:29:49.160Z,13.07
2023-03-08T09:32:19.562Z,19.27
2023-03-08T09:34:49.894Z,13.23
2023-03-08T09:37:20.333Z,13.00
2023-03-08T09:39:54.386Z,18.55
2023-03-08T09:42:27.696Z,19.52
2023-03-08T09:45:17.481Z,9.40
2023-03-08T09:47:51.694Z,14.73
2023-03-08T09:50:38.547Z,10.85
2023-03-08T09:53:17.168Z,14.93
2023-03-08T09:55:52.636Z,20.38
2023-03-08T09:58:35.876Z,11.35
2023-03-08T10:01:22.725Z,13.63
2023-03-08T10:04:14.835Z,15.93
2023-03-08T10:06:51.182Z,13.38
2023-03-08T10:09:34.575Z,14.57
2023-03-08T10:12:20.394Z,17.60
2023-03-08T10:14:53.297Z,12.77
2023-03-08T10:17:30.913Z,8.52
2023-03-08T10:20:06.869Z,13.80
2023-03-08T10:22:42.543Z,14.17
2023-03-08T10:25:24.877Z,11.57
2023-03-08T10:27:57.112Z,10.45
2023-03-08T10:30:30.105Z,8.13
2023-03-08T10:33:06.330Z,13.65
2023-03-08T10:35:39.463Z,9.15
2023-03-08T10:38:19.532Z,11.25
2023-03-08T10:40:50.115Z,10.35
2023-03-08T10:43:28.539Z,7.68
2023-03-08T10:46:07.022Z,6.78
2023-03-08T10:48:40.318Z,4.68
2023-03-08T10:51:19.551Z,6.55
2023-03-08T10:53:57.288Z,8.57
2023-03-08T10:56:30.271Z,9.18
2023-03-08T10:59:01.759Z,6.88
2023-03-08T11:01:35.060Z,4.25
2023-03-08T11:04:15.789Z,7.35
2023-03-08T11:06:46.586Z,8.43
2023-03-08T11:09:26.016Z,4.20
2023-03-08T11:11:56.726Z,6.40
2023-03-08T11:14:28.232Z,5.68
2023-03-08T11:17:08.582Z,7.35
2023-03-08T11:19:54.157Z,15.60
2023-03-08T11:22:38.417Z,7.47
2023-03-08T11:25:21.338Z,15.38
2023-03-08T11:28:03.840Z,11.77
2023-03-08T11:30:43.949Z,15.05
2023-03-08T11:33:39.960Z,13.55
2023-03-08T11:36:17.491Z,12.13
2023-03-08T11:38:54.791Z,14.00
2023-03-08T11:41:31.812Z,12.63
2023-03-08T11:46:59.568Z,19.98
2023-03-08T11:49:49.970Z,17.52
2023-03-08T11:52:32.684Z,17.33
2023-03-08T11:55:20.788Z,14.93
2023-03-08T11:57:57.096Z,15.93
2023-03-08T12:00:33.359Z,12.48
2023-03-08T12:03:11.673Z,20.00
2023-03-08T12:05:46.345Z,15.25
2023-03-08T12:08:24.106Z,16.08
2023-03-08T12:10:59.268Z,14.27
2023-03-08T12:13:37.756Z,12.48
2023-03-08T12:16:13.848Z,13.88
2023-03-08T12:18:49.458Z,12.97
2023-03-08T12:21:27.589Z,12.10
2023-03-08T12:24:16.399Z,12.70
2023-03-08T12:26:51.134Z,11.10
2023-03-08T12:29:26.222Z,9.45
2023-03-08T12:31:56.983Z,10.90
2023-03-08T12:34:32.047Z,13.98
2023-03-08T12:37:02.525Z,16.88
2023-03-08T12:39:37.726Z,10.23
2023-03-08T12:42:18.882Z,11.77
2023-03-08T12:44:49.120Z,13.60
2023-03-08T12:47:24.928Z,12.45
2023-03-08T12:49:58.912Z,10.50
2023-03-08T12:52:35.059Z,12.23
2023-03-08T12:55:20.954Z,15.03
2023-03-08T12:57:53.511Z,18.30
2023-03-08T13:00:33.570Z,12.85
2023-03-08T13:03:07.042Z,17.85
2023-03-08T13:05:39.303Z,24.35
2023-03-08T13:08:27.563Z,15.95
2023-03-08T13:11:05.523Z,19.45
2023-03-08T13:13:44.931Z,16.92
2023-03-08T13:16:37.541Z,20.70
2023-03-08T13:19:21.306Z,24.83
2023-03-08T13:21:56.785Z,21.80
2023-03-08T13:24:41.246Z,18.83
2023-03-08T13:27:24.429Z,21.17
2023-03-08T13:29:55.228Z,19.15
2023-03-08T13:32:27.791Z,15.63
2023-03-08T13:35:02.644Z,16.38
2023-03-08T13:37:33.838Z,17.83
2023-03-08T13:40:07.949Z,13.32
2023-03-08T13:42:40.906Z,19.95
2023-03-08T13:45:13.515Z,13.68
2023-03-08T13:47:47.319Z,12.73
2023-03-08T13:50:23.838Z,12.85
2023-03-08T13:52:54.209Z,9.10
2023-03-08T13:55:31.657Z,14.38
2023-03-08T13:58:05.894Z,11.90
2023-03-08T14:00:38.238Z,12.27
2023-03-08T14:03:09.217Z,9.65
2023-03-08T14:05:45.962Z,8.88
2023-03-08T14:08:23.419Z,10.38
2023-03-08T14:10:56.991Z,8.88
2023-03-08T14:13:33.024Z,9.98
2023-03-08T14:16:05.188Z,9.53
2023-03-08T14:18:38.396Z,11.18
2023-03-08T14:21:10.951Z,11.45
2023-03-08T14:23:44.045Z,9.60
2023-03-08T14:26:37.610Z,12.68
2023-03-08T14:29:16.308Z,10.02
2023-03-08T14:31:59.307Z,12.23
2023-03-08T14:34:33.990Z,15.73
2023-03-08T14:37:07.430Z,13.45
2023-03-08T14:39:39.794Z,11.77
2023-03-08T14:42:19.759Z,12.32
2023-03-08T14:44:57.865Z,14.77
2023-03-08T14:47:29.346Z,10.93
2023-03-08T14:50:04.324Z,16.08
2023-03-08T14:52:38.245Z,16.48
2023-03-08T14:55:24.190Z,13.82
2023-03-08T14:57:58.113Z,13.60
2023-03-08T15:00:32.354Z,16.30
2023-03-08T15:03:03.566Z,13.30
2023-03-08T15:05:36.504Z,21.40
2023-03-08T15:08:06.990Z,14.35
2023-03-08T15:10:40.588Z,13.63
2023-03-08T15:13:15.897Z,17.00
2023-03-08T15:15:49.190Z,21.77
2023-03-08T15:18:19.696Z,22.90
2023-03-08T15:20:53.218Z,29.42
2023-03-08T15:23:26.701Z,16.73
2023-03-08T15:25:57.268Z,23.00
2023-03-08T15:28:27.818Z,23.48
2023-03-08T15:31:00.870Z,25.60
2023-03-08T15:33:31.192Z,22.33
2023-03-08T15:36:01.665Z,27.85
2023-03-08T15:38:31.982Z,26.23
2023-03-08T15:41:04.130Z,25.92
2023-03-08T15:43:35.467Z,25.45
2023-03-08T15:46:09.050Z,21.02
2023-03-08T15:48:39.322Z,25.23
2023-03-08T15:51:09.609Z,25.20
2023-03-08T15:53:39.827Z,26.25
2023-03-08T15:56:10.301Z,20.63
2023-03-08T15:58:40.636Z,23.98
2023-03-08T16:01:14.520Z,22.58
2023-03-08T16:03:44.887Z,22.70
2023-03-08T16:06:17.616Z,26.63
2023-03-08T16:08:47.924Z,23.40
2023-03-08T16:11:22.424Z,27.65
2023-03-08T16:13:54.610Z,22.30
2023-03-08T16:16:42.191Z,19.40
2023-03-08T16:19:15.180Z,21.58
2023-03-08T16:21:45.473Z,29.42
2023-03-08T16:24:15.834Z,20.85
2023-03-08T16:26:46.573Z,35.50
2023-03-08T16:29:17.148Z,25.90
2023-03-08T16:31:50.181Z,40.10
2023-03-08T16:34:22.156Z,28.25
2023-03-08T16:36:52.349Z,32.22
2023-03-08T16:39:23.067Z,19.70
2023-03-08T16:41:53.810Z,31.42
2023-03-08T16:44:28.789Z,26.92
2023-03-08T16:47:01.829Z,24.60
2023-03-08T16:49:32.371Z,32.08
2023-03-08T16:52:02.552Z,29.60
2023-03-08T16:54:32.974Z,27.15
2023-03-08T16:57:17.811Z,29.27
2023-03-08T16:59:49.699Z,34.65
2023-03-08T17:02:24.540Z,33.47
2023-03-08T17:04:55.052Z,32.58
2023-03-08T17:07:25.362Z,35.40
2023-03-08T17:09:55.640Z,23.50
2023-03-08T17:12:25.915Z,30.77
2023-03-08T17:14:56.175Z,33.25
2023-03-08T17:17:28.992Z,32.90
2023-03-08T17:19:59.900Z,33.70
2023-03-08T17:22:30.227Z,38.45
2023-03-08T17:25:00.514Z,41.10
2023-03-08T17:27:31.206Z,44.47
2023-03-08T17:30:02.733Z,41.50
2023-03-08T17:32:37.236Z,39.85
2023-03-08T17:35:08.288Z,39.28
2023-03-08T17:37:41.611Z,24.77
2023-03-08T17:40:14.205Z,19.23
2023-03-08T17:42:44.618Z,10.13
2023-03-08T17:45:15.726Z,10.60
2023-03-08T17:47:48.962Z,12.60
2023-03-08T17:50:19.655Z,10.40
2023-03-08T17:52:49.909Z,5.93
2023-03-08T17:55:20.377Z,4.80
2023-03-08T17:57:50.739Z,7.97
2023-03-08T18:00:22.538Z,11.60
2023-03-08T18:02:56.667Z,9.32
2023-03-08T18:05:26.848Z,9.48
2023-03-08T18:07:57.221Z,8.43
2023-03-08T18:10:27.619Z,4.00
2023-03-08T18:12:58.113Z,4.47
2023-03-08T18:15:28.338Z,3.92
2023-03-08T18:18:01.265Z,2.08
2023-03-08T18:20:31.638Z,3.03
2023-03-08T18:23:01.939Z,2.35
2023-03-08T18:25:32.299Z,1.70
2023-03-08T18:28:02.582Z,6.18
2023-03-08T18:30:32.811Z,1.67
2023-03-08T18:33:05.726Z,2.25
2023-03-08T18:35:37.266Z,7.55
2023-03-08T18:38:07.609Z,2.08
2023-03-08T18:40:37.828Z,4.65
2023-03-08T18:43:08.153Z,4.60
2023-03-08T18:45:38.426Z,4.20
2023-03-08T18:48:11.224Z,3.08
2023-03-08T18:50:44.368Z,5.30
2023-03-08T18:53:15.719Z,6.82
2023-03-08T18:55:56.412Z,5.35
2023-03-08T18:58:27.360Z,3.53
2023-03-08T19:01:02.220Z,4.28
2023-03-08T19:03:35.078Z,3.45
2023-03-08T19:06:05.646Z,5.10
2023-03-08T19:08:36.397Z,6.00
2023-03-08T19:11:14.833Z,2.65
2023-03-08T19:13:45.984Z,5.10
2023-03-08T19:16:27.737Z,3.58
2023-03-08T19:19:02.176Z,4.10
2023-03-08T19:21:34.200Z,7.18
2023-03-08T19:24:04.812Z,4.43
2023-03-08T19:26:41.228Z,5.05
2023-03-08T19:29:14.623Z,6.55
2023-03-08T19:31:46.913Z,6.05
2023-03-08T19:34:20.835Z,6.03
2023-03-08T19:36:52.294Z,5.95
2023-03-08T19:39:24.275Z,11.43
2023-03-08T19:41:56.084Z,9.60
2023-03-08T19:44:27.469Z,9.68
2023-03-08T19:46:59.005Z,8.20
2023-03-08T19:49:33.637Z,10.35
2023-03-08T19:52:06.848Z,6.25
2023-03-08T19:54:37.367Z,3.45
2023-03-08T19:57:08.461Z,3.45
2023-03-08T19:59:39.262Z,3.85
2023-03-08T20:02:11.404Z,2.95
2023-03-08T20:04:45.273Z,3.15
2023-03-08T20:07:15.505Z,4.82
2023-03-08T20:09:45.827Z,4.07
2023-03-08T20:12:16.263Z,4.63
2023-03-08T20:14:46.604Z,7.15
2023-03-08T20:17:16.838Z,6.93
2023-03-08T20:19:49.720Z,3.78
2023-03-08T20:22:20.058Z,5.07
2023-03-08T20:24:50.434Z,5.90
2023-03-08T20:27:20.785Z,7.30
2023-03-08T20:29:51.094Z,6.63
2023-03-08T20:32:21.929Z,7.57
2023-03-08T20:34:54.888Z,8.18
2023-03-08T20:37:25.689Z,8.77
2023-03-08T20:39:59.531Z,4.55
2023-03-08T20:42:31.280Z,9.38
2023-03-08T20:45:01.614Z,9.55
2023-03-08T20:47:32.997Z,12.75
2023-03-08T20:50:06.968Z,7.40
2023-03-08T20:52:37.297Z,7.53
2023-03-08T20:55:08.501Z,10.70
2023-03-08T20:57:38.908Z,9.55
2023-03-08T21:00:10.630Z,8.82
2023-03-08T21:02:41.448Z,12.80
2023-03-08T21:05:14.772Z,11.48
2023-03-08T21:07:45.067Z,15.65
2023-03-08T21:10:15.466Z,7.22
2023-03-08T21:12:45.942Z,10.48
2023-03-08T21:15:16.391Z,11.20
2023-03-08T21:17:46.647Z,14.88
2023-03-08T21:20:19.827Z,13.77
2023-03-08T21:22:50.086Z,17.42
2023-03-08T21:25:20.612Z,10.23
2023-03-08T21:27:50.909Z,12.75
2023-03-08T21:30:21.681Z,13.27
2023-03-08T21:32:52.020Z,17.52
2023-03-08T21:35:24.927Z,9.77
2023-03-08T21:37:55.179Z,11.15
2023-03-08T21:40:25.463Z,10.77
2023-03-08T21:42:55.702Z,11.15
2023-03-08T21:45:25.972Z,14.60
2023-03-08T21:47:56.291Z,11.07
2023-03-08T21:50:29.560Z,13.50
2023-03-08T21:52:59.832Z,11.43
2023-03-08T21:55:30.196Z,17.00
2023-03-08T21:58:00.497Z,11.88
2023-03-08T22:00:30.891Z,13.38
2023-03-08T22:03:01.580Z,10.80
2023-03-08T22:05:34.471Z,14.13
2023-03-08T22:08:04.670Z,14.23
2023-03-08T22:10:34.904Z,15.73
2023-03-08T22:13:05.176Z,16.35
2023-03-08T22:15:35.566Z,19.92
2023-03-08T22:18:05.783Z,22.55
2023-03-08T22:20:38.621Z,18.02
2023-03-08T22:23:08.926Z,15.07
2023-03-08T22:25:39.261Z,20.88
2023-03-08T22:28:09.574Z,19.35
2023-03-08T22:30:39.898Z,18.70
2023-03-08T22:33:12.187Z,15.48
2023-03-08T22:35:47.715Z,22.58
2023-03-08T22:38:19.450Z,14.05
2023-03-08T22:40:49.728Z,14.23
2023-03-08T22:43:20.025Z,10.15
2023-03-08T22:45:50.304Z,15.15
2023-03-08T22:48:20.691Z,17.02
2023-03-08T22:51:04.833Z,18.42
2023-03-08T22:53:40.362Z,16.40
2023-03-08T22:56:18.792Z,19.52
2023-03-08T22:58:49.457Z,20.08
2023-03-08T23:01:21.778Z,20.02
2023-03-08T23:03:52.250Z,20.38
2023-03-08T23:06:28.119Z,19.80
2023-03-08T23:08:58.464Z,17.15
2023-03-08T23:11:29.072Z,12.95
2023-03-08T23:13:59.411Z,14.23
2023-03-08T23:16:30.315Z,16.85
2023-03-08T23:19:00.679Z,17.83
2023-03-08T23:21:35.904Z,13.57
2023-03-08T23:24:06.435Z,18.80
2023-03-08T23:26:37.385Z,17.50
2023-03-08T23:29:08.538Z,20.65
2023-03-08T23:31:41.476Z,14.82
2023-03-08T23:34:11.866Z,17.02
2023-03-08T23:36:44.805Z,18.90
2023-03-08T23:39:15.078Z,14.30
2023-03-08T23:41:45.607Z,17.38
2023-03-08T23:44:17.332Z,16.52
2023-03-08T23:46:47.972Z,21.23
2023-03-08T23:49:19.159Z,19.33
2023-03-08T23:51:52.239Z,21.58
2023-03-08T23:54:22.504Z,20.63
2023-03-08T23:56:52.755Z,22.67
2023-03-08T23:59:24.993Z,23.17
